Time;durP1;ratioP1;P1;durP2;ratioP2;P2;SDS_P1;SDS_P2;PMS_P1;PMS_P2;Temp;Humidity;BMP_temperature;BMP_pressure;BME280_temperature;BME280_humidity;BME280_pressure;Samples;Min_cycle;Max_cycle;Signal;HPM_P1;HPM_P2
2023/12/16 00:02:19;;;;;;;15.20;7.32;;;;;;;6.65;100.00;103843.69;5038569;28;20029;-76
2023/12/16 00:04:44;;;;;;;17.58;7.45;;;;;;;6.61;100.00;103845.72;5029433;28;20025;-76
2023/12/16 00:07:10;;;;;;;13.20;6.63;;;;;;;6.66;100.00;103850.72;5029420;28;20172;-76
2023/12/16 00:09:36;;;;;;;18.85;5.50;;;;;;;6.66;100.00;103858.69;5017089;28;20040;-76
2023/12/16 00:12:02;;;;;;;16.05;6.13;;;;;;;6.63;100.00;103854.44;5045545;28;20654;-76
2023/12/16 00:14:27;;;;;;;13.02;6.35;;;;;;;6.62;100.00;103844.75;5014039;28;20040;-76
2023/12/16 00:16:53;;;;;;;17.13;6.70;;;;;;;6.67;100.00;103849.78;5035698;28;20107;-76
2023/12/16 00:19:18;;;;;;;15.80;8.63;;;;;;;6.58;100.00;103837.94;5036214;28;20029;-76
2023/12/16 00:21:43;;;;;;;20.80;7.90;;;;;;;6.64;100.00;103855.28;5025886;28;20068;-76
2023/12/16 00:24:09;;;;;;;17.80;6.60;;;;;;;6.63;100.00;103854.44;5011750;28;20203;-76
2023/12/16 00:26:34;;;;;;;49.95;9.80;;;;;;;6.63;100.00;103850.91;4998974;28;20054;-75
2023/12/16 00:29:00;;;;;;;16.95;6.45;;;;;;;6.64;100.00;103849.97;5012714;28;20032;-76
2023/12/16 00:31:25;;;;;;;18.63;6.00;;;;;;;6.65;100.00;103849.00;5026073;28;20025;-76
2023/12/16 00:33:50;;;;;;;15.25;5.00;;;;;;;6.62;100.00;103833.28;5046124;28;20120;-76
2023/12/16 00:36:16;;;;;;;15.95;6.13;;;;;;;6.66;100.00;103832.16;5034239;28;20034;-76
2023/12/16 00:38:41;;;;;;;15.60;6.32;;;;;;;6.66;100.00;103832.16;5023165;28;20037;-76
2023/12/16 00:41:07;;;;;;;15.80;7.15;;;;;;;6.63;100.00;103819.94;5033188;28;20044;-75
2023/12/16 00:43:33;;;;;;;18.52;5.88;;;;;;;6.62;100.00;103812.06;5018328;28;20064;-76
2023/12/16 00:45:58;;;;;;;20.13;5.53;;;;;;;6.64;100.00;103826.09;5042011;28;20099;-75
2023/12/16 00:48:23;;;;;;;20.98;5.63;;;;;;;6.65;100.00;103835.75;5052103;28;20120;-75
2023/12/16 00:50:49;;;;;;;12.32;5.00;;;;;;;6.65;100.00;103838.41;5021172;28;20489;-75
2023/12/16 00:53:14;;;;;;;16.63;5.50;;;;;;;6.62;100.00;103830.63;5041406;28;20041;-76
2023/12/16 00:55:40;;;;;;;13.93;4.93;;;;;;;6.66;100.00;103840.13;5015286;28;20057;-76
2023/12/16 00:58:06;;;;;;;14.23;4.38;;;;;;;6.63;100.00;103832.34;5032393;28;20037;-76
2023/12/16 01:00:32;;;;;;;11.43;4.78;;;;;;;6.68;100.00;103838.19;5032582;28;20037;-76
2023/12/16 01:02:58;;;;;;;18.88;5.72;;;;;;;6.66;100.00;103835.66;5024798;28;20095;-76
2023/12/16 01:05:24;;;;;;;12.02;4.68;;;;;;;6.64;100.00;103842.84;5023739;28;20029;-76
2023/12/16 01:07:50;;;;;;;12.13;5.00;;;;;;;6.65;100.00;103841.06;5015078;28;20033;-76
2023/12/16 01:10:15;;;;;;;14.90;5.50;;;;;;;6.66;100.00;103840.13;5018005;28;20183;-76
2023/12/16 01:12:41;;;;;;;10.38;4.20;;;;;;;6.66;100.00;103837.47;5035424;28;20468;-76
2023/12/16 01:15:07;;;;;;;16.98;6.82;;;;;;;6.61;100.00;103832.44;5014646;28;20030;-76
2023/12/16 01:17:32;;;;;;;14.32;5.63;;;;;;;6.59;100.00;103824.56;5019820;28;20040;-76
2023/12/16 01:19:58;;;;;;;9.98;4.75;;;;;;;6.62;100.00;103833.28;5045999;28;20070;-76
2023/12/16 01:22:24;;;;;;;11.15;4.53;;;;;;;6.66;100.00;103837.47;5050740;28;20025;-76
2023/12/16 01:24:49;;;;;;;14.02;4.28;;;;;;;6.65;100.00;103828.63;5044579;28;20076;-76
2023/12/16 01:27:14;;;;;;;12.77;4.68;;;;;;;6.63;100.00;103830.56;5032035;28;20049;-76
2023/12/16 01:29:40;;;;;;;12.90;4.43;;;;;;;6.64;100.00;103821.63;5014829;28;20033;-76
2023/12/16 01:32:05;;;;;;;12.43;5.57;;;;;;;6.65;100.00;103827.78;5048966;28;20032;-76
2023/12/16 01:34:31;;;;;;;14.73;6.15;;;;;;;6.64;100.00;103828.75;5043737;28;20389;-81
2023/12/16 01:36:56;;;;;;;11.73;4.20;;;;;;;6.64;100.00;103828.75;5040924;28;20029;-81
2023/12/16 01:39:21;;;;;;;15.88;5.00;;;;;;;6.64;100.00;103815.50;5038044;28;20052;-81
2023/12/16 01:41:47;;;;;;;12.52;5.35;;;;;;;6.61;100.00;103815.69;5037898;28;20031;-81
2023/12/16 01:44:12;;;;;;;16.63;7.03;;;;;;;6.63;100.00;103821.72;5040019;28;20068;-81
2023/12/16 01:46:38;;;;;;;16.00;5.07;;;;;;;6.64;100.00;103823.44;5037320;28;20030;-81
2023/12/16 01:49:04;;;;;;;21.05;8.43;;;;;;;6.58;100.00;103817.59;5042135;28;20142;-81
2023/12/16 01:51:32;;;;;;;11.23;3.50;;;;;;;6.58;100.00;103814.94;5025961;28;20030;-81
2023/12/16 01:53:58;;;;;;;15.40;4.88;;;;;;;6.62;100.00;103815.56;5037200;28;20029;-81
2023/12/16 01:56:24;;;;;;;13.82;4.40;;;;;;;6.63;100.00;103817.28;5040919;28;20041;-81
2023/12/16 01:58:50;;;;;;;10.23;3.92;;;;;;;6.62;100.00;103806.78;5040512;28;20030;-81
2023/12/16 02:01:16;;;;;;;15.93;4.10;;;;;;;6.53;100.00;103800.25;5040941;28;20036;-81
2023/12/16 02:03:44;;;;;;;13.43;4.38;;;;;;;6.56;100.00;103806.22;5037230;28;20026;-81
2023/12/16 02:06:09;;;;;;;10.52;3.65;;;;;;;6.59;100.00;103819.28;5035091;28;20027;-81
2023/12/16 02:08:36;;;;;;;11.02;5.18;;;;;;;6.57;100.00;103822.97;5039583;28;20033;-81
2023/12/16 02:11:01;;;;;;;8.57;3.88;;;;;;;6.58;100.00;103828.19;5022340;28;20091;-80
2023/12/16 02:13:26;;;;;;;13.30;5.20;;;;;;;6.58;100.00;103832.66;5039421;28;20029;-80
2023/12/16 02:15:52;;;;;;;16.90;5.28;;;;;;;6.58;100.00;103830.84;5023054;28;20116;-81
2023/12/16 02:18:17;;;;;;;17.48;4.43;;;;;;;6.57;100.00;103833.56;5037893;28;20052;-80
2023/12/16 02:20:43;;;;;;;14.00;3.72;;;;;;;6.55;100.00;103836.34;5041639;28;20075;-80
2023/12/16 02:23:15;;;;;;;13.93;4.50;;;;;;;6.50;100.00;103827.81;5021161;28;20029;-81
2023/12/16 02:25:42;;;;;;;9.25;4.25;;;;;;;6.50;100.00;103835.78;5035384;28;20028;-81
2023/12/16 02:28:08;;;;;;;12.93;4.90;;;;;;;6.45;100.00;103827.25;5030870;28;20104;-80
2023/12/16 02:30:33;;;;;;;10.40;3.42;;;;;;;6.46;100.00;103836.91;5014418;28;20159;-81
2023/12/16 02:32:59;;;;;;;12.75;5.07;;;;;;;6.41;100.00;103840.78;5039431;28;20077;-81
2023/12/16 02:35:24;;;;;;;12.20;4.13;;;;;;;6.36;100.00;103833.13;5023955;28;20044;-81
2023/12/16 02:37:49;;;;;;;10.52;3.10;;;;;;;6.30;100.00;103829.06;5022232;28;20042;-80
2023/12/16 02:40:15;;;;;;;12.40;3.67;;;;;;;6.24;100.00;103829.44;5018353;28;20033;-81
2023/12/16 02:42:40;;;;;;;13.77;3.80;;;;;;;6.13;100.00;103822.16;5041877;28;20040;-80
2023/12/16 02:45:06;;;;;;;15.65;4.38;;;;;;;6.09;100.00;103817.13;5040698;28;20048;-81
2023/12/16 02:47:31;;;;;;;11.10;4.18;;;;;;;6.07;100.00;103817.22;5021236;28;20034;-81
2023/12/16 02:49:57;;;;;;;9.93;4.55;;;;;;;5.99;100.00;103813.34;5031665;28;20108;-80
2023/12/16 02:52:22;;;;;;;15.30;3.88;;;;;;;5.89;100.00;103802.41;5023165;28;20029;-81
2023/12/16 02:54:47;;;;;;;7.28;3.78;;;;;;;5.91;100.00;103809.31;5038839;28;20021;-81
2023/12/16 02:57:13;;;;;;;8.15;3.45;;;;;;;5.91;100.00;103811.97;5035411;28;20504;-81
2023/12/16 02:59:39;;;;;;;14.60;3.83;;;;;;;5.96;100.00;103824.97;5013884;28;20158;-80
2023/12/16 03:02:04;;;;;;;15.10;4.75;;;;;;;5.93;100.00;103812.75;5040195;28;20033;-80
2023/12/16 03:04:29;;;;;;;9.95;4.43;;;;;;;6.00;100.00;103815.91;5036029;28;20036;-81
2023/12/16 03:06:55;;;;;;;13.27;4.25;;;;;;;6.04;100.00;103828.00;5040445;28;20108;-80
2023/12/16 03:09:20;;;;;;;11.40;4.75;;;;;;;6.03;100.00;103826.31;5019036;28;20036;-81
2023/12/16 03:11:45;;;;;;;12.50;4.18;;;;;;;6.04;100.00;103822.69;5031098;28;20167;-80
2023/12/16 03:14:11;;;;;;;9.80;3.80;;;;;;;6.02;100.00;103819.28;5032635;28;20025;-80
2023/12/16 03:16:36;;;;;;;11.50;4.82;;;;;;;6.01;100.00;103816.75;5040268;28;20452;-81
2023/12/16 03:19:02;;;;;;;12.02;3.97;;;;;;;5.93;100.00;103814.53;5039293;28;20057;-80
2023/12/16 03:21:28;;;;;;;18.33;4.15;;;;;;;5.90;100.00;103809.44;5038262;28;20048;-80
2023/12/16 03:23:53;;;;;;;12.43;3.83;;;;;;;5.88;100.00;103811.31;5031678;28;20400;-81
2023/12/16 03:26:20;;;;;;;10.52;3.95;;;;;;;5.89;100.00;103810.34;5037840;28;20057;-80
2023/12/16 03:28:45;;;;;;;7.53;3.67;;;;;;;5.84;100.00;103813.31;5018497;28;20056;-81
2023/12/16 03:31:10;;;;;;;10.30;3.92;;;;;;;5.82;100.00;103806.38;5032263;28;20523;-81
2023/12/16 03:33:36;;;;;;;13.77;3.92;;;;;;;5.78;100.00;103800.41;5037957;28;20029;-81
2023/12/16 03:36:01;;;;;;;15.88;3.58;;;;;;;5.71;100.00;103804.34;5022779;28;20069;-80
2023/12/16 03:38:27;;;;;;;10.35;3.70;;;;;;;5.74;100.00;103813.91;5039577;28;20037;-81
2023/12/16 03:40:52;;;;;;;17.95;4.10;;;;;;;5.73;100.00;103810.41;5038982;28;20112;-80
2023/12/16 03:43:18;;;;;;;15.60;4.20;;;;;;;5.70;100.00;103816.75;5038179;28;20029;-81
2023/12/16 03:45:43;;;;;;;12.05;4.68;;;;;;;5.67;100.00;103810.78;5023861;28;20030;-81
2023/12/16 03:48:09;;;;;;;12.80;3.80;;;;;;;5.64;100.00;103814.47;5037881;28;20023;-80
2023/12/16 03:50:34;;;;;;;7.65;3.35;;;;;;;5.68;100.00;103809.84;5037363;28;20040;-80
2023/12/16 03:53:00;;;;;;;10.38;4.90;;;;;;;5.74;100.00;103811.25;5004717;28;20043;-80
2023/12/16 03:55:25;;;;;;;11.10;4.45;;;;;;;5.76;100.00;103809.38;5038011;28;20083;-81
2023/12/16 03:57:50;;;;;;;13.60;4.22;;;;;;;5.70;100.00;103815.91;5034322;28;20052;-80
2023/12/16 04:00:16;;;;;;;10.40;4.00;;;;;;;5.75;100.00;103824.44;5046777;28;20400;-76
2023/12/16 04:02:41;;;;;;;16.65;5.18;;;;;;;5.75;100.00;103813.00;5029618;28;20068;-76
2023/12/16 04:05:07;;;;;;;13.88;4.70;;;;;;;5.67;100.00;103801.06;5036386;28;20071;-76
2023/12/16 04:07:32;;;;;;;12.35;3.70;;;;;;;5.70;100.00;103808.81;5030601;28;20036;-76
2023/12/16 04:09:59;;;;;;;14.38;4.15;;;;;;;5.68;100.00;103804.53;5023683;28;20025;-76
2023/12/16 04:12:24;;;;;;;12.40;5.25;;;;;;;5.70;100.00;103813.25;5048549;28;20039;-76
2023/12/16 04:14:49;;;;;;;11.13;4.05;;;;;;;5.68;100.00;103818.63;5044804;28;20475;-76
2023/12/16 04:17:15;;;;;;;9.60;3.63;;;;;;;5.69;100.00;103823.00;5033695;28;20041;-76
2023/12/16 04:19:52;;;;;;;9.10;3.85;;;;;;;5.70;100.00;103814.09;5035301;28;20025;-76
2023/12/16 04:22:18;;;;;;;14.68;6.07;;;;;;;5.74;100.00;103819.22;5043514;28;20065;-76
2023/12/16 04:24:44;;;;;;;13.30;3.70;;;;;;;5.84;100.00;103821.25;5047975;28;20071;-76
2023/12/16 04:27:09;;;;;;;16.05;5.35;;;;;;;5.86;100.00;103813.19;5016319;28;20057;-76
2023/12/16 04:29:34;;;;;;;12.88;4.47;;;;;;;5.92;100.00;103815.47;5011323;28;20493;-76
2023/12/16 04:32:00;;;;;;;11.35;5.07;;;;;;;5.92;100.00;103804.88;4994574;28;20515;-76
2023/12/16 04:34:25;;;;;;;14.27;4.50;;;;;;;5.90;100.00;103788.22;5028836;28;20460;-76
2023/12/16 04:36:50;;;;;;;9.27;4.18;;;;;;;5.92;100.00;103796.91;5011019;28;20095;-76
2023/12/16 04:39:16;;;;;;;15.93;4.90;;;;;;;5.94;100.00;103803.00;5011249;28;20055;-76
2023/12/16 04:41:41;;;;;;;13.07;4.85;;;;;;;5.97;100.00;103800.16;5011188;28;20504;-76
2023/12/16 04:44:06;;;;;;;10.50;4.75;;;;;;;6.02;100.00;103806.03;5028799;28;20041;-76
2023/12/16 04:46:32;;;;;;;13.50;4.97;;;;;;;6.03;100.00;103799.81;5028775;28;20025;-76
2023/12/16 04:48:57;;;;;;;10.98;3.45;;;;;;;6.05;100.00;103797.94;5010906;28;20480;-75
2023/12/16 04:51:22;;;;;;;12.77;4.20;;;;;;;5.97;100.00;103781.63;5028540;28;20036;-76
2023/12/16 04:53:48;;;;;;;21.33;5.20;;;;;;;6.08;100.00;103803.03;5028874;28;20091;-75
2023/12/16 04:56:13;;;;;;;13.50;3.88;;;;;;;6.06;100.00;103796.97;5028733;28;20472;-76
2023/12/16 04:58:39;;;;;;;10.73;3.72;;;;;;;6.02;100.00;103798.09;5011001;28;20047;-76
2023/12/16 05:01:04;;;;;;;10.73;3.65;;;;;;;6.01;100.00;103801.69;5010852;28;20062;-76
2023/12/16 05:03:33;;;;;;;16.20;4.45;;;;;;;5.96;100.00;103803.78;5010803;28;20041;-75
2023/12/16 05:05:58;;;;;;;19.38;4.70;;;;;;;5.92;100.00;103802.22;5028620;28;20034;-76
2023/12/16 05:08:24;;;;;;;17.90;5.35;;;;;;;5.89;100.00;103803.28;5010830;28;20026;-76
2023/12/16 05:10:49;;;;;;;17.85;4.20;;;;;;;5.85;100.00;103803.56;5028539;28;20021;-76
2023/12/16 05:13:15;;;;;;;15.45;5.47;;;;;;;5.77;100.00;103795.22;5028623;28;20033;-76
2023/12/16 05:15:41;;;;;;;9.77;4.07;;;;;;;5.79;100.00;103806.53;5028491;28;20036;-76
2023/12/16 05:18:07;;;;;;;12.38;4.15;;;;;;;5.72;100.00;103817.53;5030473;28;20128;-76
2023/12/16 05:20:33;;;;;;;15.38;4.40;;;;;;;5.67;100.00;103806.34;5032164;28;20025;-76
2023/12/16 05:23:01;;;;;;;11.57;4.15;;;;;;;5.65;100.00;103812.69;5032165;28;20056;-76
2023/12/16 05:25:30;;;;;;;15.20;4.38;;;;;;;5.57;100.00;103805.19;5014287;28;20040;-75
2023/12/16 05:27:56;;;;;;;14.88;4.15;;;;;;;5.60;100.00;103817.38;5045682;28;20060;-75
2023/12/16 05:30:22;;;;;;;22.90;5.07;;;;;;;5.55;100.00;103814.16;5026029;28;20029;-75
2023/12/16 05:32:48;;;;;;;11.35;3.95;;;;;;;5.53;100.00;103816.91;5048434;28;20091;-76
2023/12/16 05:35:14;;;;;;;11.68;3.92;;;;;;;5.55;100.00;103809.72;5016099;28;21060;-75
2023/12/16 05:37:40;;;;;;;15.07;5.22;;;;;;;5.49;100.00;103802.13;5038319;28;20052;-75
2023/12/16 05:40:05;;;;;;;10.50;4.45;;;;;;;5.48;100.00;103808.41;5044114;28;20029;-76
2023/12/16 05:42:31;;;;;;;13.00;4.22;;;;;;;5.46;100.00;103813.75;5031808;28;20036;-75
2023/12/16 05:44:56;;;;;;;12.98;4.07;;;;;;;5.46;100.00;103807.63;5014020;28;20037;-75
2023/12/16 05:47:22;;;;;;;12.98;4.22;;;;;;;5.45;100.00;103814.72;5018419;28;20024;-76
2023/12/16 05:49:47;;;;;;;10.50;5.47;;;;;;;5.40;100.00;103818.56;5018728;28;20468;-75
2023/12/16 05:52:12;;;;;;;14.43;4.75;;;;;;;5.38;100.00;103801.94;5029136;28;20037;-75
2023/12/16 05:54:38;;;;;;;19.23;4.45;;;;;;;5.38;100.00;103810.72;5014772;28;20032;-76
2023/12/16 05:57:04;;;;;;;12.65;3.70;;;;;;;5.33;100.00;103809.28;5043305;28;20049;-76
2023/12/16 05:59:29;;;;;;;14.52;5.20;;;;;;;5.25;100.00;103799.97;5014942;28;20041;-76
2023/12/16 06:01:55;;;;;;;12.00;4.53;;;;;;;5.26;100.00;103801.69;5029138;28;20046;-76
2023/12/16 06:04:20;;;;;;;18.33;3.92;;;;;;;5.21;100.00;103798.47;5013560;28;20064;-76
2023/12/16 06:06:46;;;;;;;14.45;4.05;;;;;;;5.20;100.00;103793.25;5048251;28;20059;-75
2023/12/16 06:09:12;;;;;;;13.20;4.40;;;;;;;5.23;100.00;103809.78;5013755;28;20473;-76
2023/12/16 06:11:37;;;;;;;12.13;3.80;;;;;;;5.16;100.00;103799.66;5037900;28;20079;-76
2023/12/16 06:14:03;;;;;;;8.07;3.85;;;;;;;5.21;100.00;103811.69;5048558;28;21629;-75
2023/12/16 06:16:28;;;;;;;9.85;3.78;;;;;;;5.21;100.00;103813.47;5032519;28;20048;-76
2023/12/16 06:18:54;;;;;;;16.50;4.50;;;;;;;5.19;100.00;103815.38;5041934;28;20032;-76
2023/12/16 06:21:19;;;;;;;14.10;4.10;;;;;;;5.22;100.00;103818.69;5049845;28;20111;-76
2023/12/16 06:23:45;;;;;;;14.45;4.45;;;;;;;5.22;100.00;103815.19;5036740;28;20034;-76
2023/12/16 06:26:10;;;;;;;21.08;5.35;;;;;;;5.21;100.00;103810.81;5031003;28;20033;-76
2023/12/16 06:28:36;;;;;;;14.65;4.32;;;;;;;5.20;100.00;103806.47;5046974;28;20033;-76
2023/12/16 06:31:01;;;;;;;13.25;4.82;;;;;;;5.19;100.00;103802.16;5050041;28;20025;-76
2023/12/16 06:33:27;;;;;;;11.15;3.92;;;;;;;5.21;100.00;103800.25;5050208;28;20494;-76
2023/12/16 06:35:52;;;;;;;11.35;3.03;;;;;;;5.23;100.00;103790.44;5021472;28;20091;-76
2023/12/16 06:38:17;;;;;;;18.00;5.85;;;;;;;5.22;100.00;103791.38;5025365;28;20037;-80
2023/12/16 06:40:43;;;;;;;10.48;5.50;;;;;;;5.25;100.00;103804.44;5023885;28;20099;-81
2023/12/16 06:43:08;;;;;;;12.73;3.97;;;;;;;5.23;100.00;103801.84;5040516;28;20120;-81
2023/12/16 06:45:34;;;;;;;14.68;4.57;;;;;;;5.19;100.00;103810.94;5040092;28;20499;-81
2023/12/16 06:48:00;;;;;;;13.88;4.88;;;;;;;5.15;100.00;103801.44;5006289;28;20029;-81
2023/12/16 06:50:25;;;;;;;10.50;3.75;;;;;;;5.18;100.00;103811.00;5038919;28;20465;-80
2023/12/16 06:52:50;;;;;;;14.63;5.32;;;;;;;5.16;100.00;103812.88;5039260;28;20040;-80
2023/12/16 06:55:16;;;;;;;17.00;5.15;;;;;;;5.13;100.00;103808.63;5039496;28;20030;-81
2023/12/16 06:57:41;;;;;;;14.48;4.82;;;;;;;5.11;100.00;103804.34;5038422;28;20037;-81
2023/12/16 07:00:09;;;;;;;11.82;4.05;;;;;;;5.09;100.00;103819.50;5038577;28;20052;-81
2023/12/16 07:02:36;;;;;;;11.73;4.03;;;;;;;5.04;100.00;103810.00;5038834;28;20030;-80
2023/12/16 07:05:02;;;;;;;13.20;3.22;;;;;;;4.99;100.00;103806.78;5038660;28;20535;-81
2023/12/16 07:07:28;;;;;;;11.85;3.67;;;;;;;5.04;100.00;103807.34;5023017;28;20029;-80
2023/12/16 07:09:53;;;;;;;12.48;4.10;;;;;;;5.03;100.00;103808.31;5039281;28;20028;-80
2023/12/16 07:12:18;;;;;;;15.13;4.95;;;;;;;5.00;100.00;103805.84;5040106;28;20974;-81
2023/12/16 07:14:44;;;;;;;7.68;4.53;;;;;;;5.00;100.00;103819.06;5005154;28;20040;-81
2023/12/16 07:17:10;;;;;;;13.50;4.85;;;;;;;4.98;100.00;103806.88;5038688;28;20364;-81
2023/12/16 07:19:35;;;;;;;15.23;3.97;;;;;;;4.99;100.00;103812.06;5038053;28;20087;-81
2023/12/16 07:22:01;;;;;;;11.73;4.63;;;;;;;5.02;100.00;103821.63;5022077;28;20049;-80
2023/12/16 07:24:26;;;;;;;14.80;3.60;;;;;;;5.01;100.00;103825.22;5037793;28;20449;-81
2023/12/16 07:26:52;;;;;;;13.23;3.58;;;;;;;4.98;100.00;103814.81;5039909;28;20040;-81
2023/12/16 07:29:17;;;;;;;11.27;3.17;;;;;;;4.96;100.00;103829.91;5037657;28;20025;-81
2023/12/16 07:31:50;;;;;;;14.02;4.43;;;;;;;5.04;100.00;103849.69;5039277;28;20025;-80
2023/12/16 07:34:15;;;;;;;9.13;3.83;;;;;;;5.00;100.00;103844.66;5037757;28;20388;-81
2023/12/16 07:36:41;;;;;;;12.40;3.55;;;;;;;4.96;100.00;103836.03;5038348;28;20075;-81
2023/12/16 07:39:06;;;;;;;12.00;3.70;;;;;;;5.02;100.00;103842.78;5037548;28;20523;-80
2023/12/16 07:41:34;;;;;;;9.85;3.20;;;;;;;5.05;100.00;103851.38;5037451;28;20646;-81
2023/12/16 07:43:59;;;;;;;6.63;3.30;;;;;;;5.02;100.00;103842.78;5038346;28;20040;-81
2023/12/16 07:46:24;;;;;;;16.48;4.45;;;;;;;5.05;100.00;103842.59;5040110;28;20029;-81
2023/12/16 07:48:50;;;;;;;13.13;4.38;;;;;;;5.09;100.00;103840.66;5038227;28;20068;-81
2023/12/16 07:51:16;;;;;;;11.40;4.80;;;;;;;5.06;100.00;103833.75;5040558;28;20033;-81
2023/12/16 07:53:47;;;;;;;12.23;3.30;;;;;;;5.13;100.00;103840.38;5039375;28;20396;-82
2023/12/16 07:56:29;;;;;;;9.93;3.50;;;;;;;5.12;100.00;103832.53;5038376;28;20473;-81
2023/12/16 07:58:57;;;;;;;10.07;4.43;;;;;;;5.15;100.00;103842.94;5039453;28;20421;-81
2023/12/16 08:01:22;;;;;;;11.13;4.28;;;;;;;5.13;100.00;103847.44;5039782;28;20056;-81
2023/12/16 08:03:48;;;;;;;11.52;3.35;;;;;;;5.20;100.00;103848.81;5040175;28;20468;-81
2023/12/16 08:06:17;;;;;;;11.00;4.82;;;;;;;5.21;100.00;103855.81;5037946;28;20431;-82
2023/12/16 08:08:43;;;;;;;13.00;3.70;;;;;;;5.25;100.00;103865.28;5038335;28;20067;-82
2023/12/16 08:11:10;;;;;;;10.32;3.72;;;;;;;5.24;100.00;103864.44;5039509;28;20021;-82
2023/12/16 08:13:36;;;;;;;15.35;4.28;;;;;;;5.25;100.00;103857.34;5038233;28;20037;-82
2023/12/16 08:16:04;;;;;;;10.07;4.07;;;;;;;5.27;100.00;103863.41;5022330;28;20476;-82
2023/12/16 08:18:30;;;;;;;16.35;4.65;;;;;;;5.30;100.00;103870.31;5037150;28;20025;-82
2023/12/16 08:20:55;;;;;;;10.75;3.78;;;;;;;5.28;100.00;103863.31;5022619;28;20114;-82
2023/12/16 08:23:21;;;;;;;20.17;6.93;;;;;;;5.33;100.00;103867.50;5021391;28;20431;-82
2023/12/16 08:25:47;;;;;;;11.73;4.38;;;;;;;5.34;100.00;103870.03;5037971;28;20057;-80
2023/12/16 08:28:12;;;;;;;14.05;4.47;;;;;;;5.41;100.00;103874.06;5021424;28;20042;-82
2023/12/16 08:30:38;;;;;;;11.27;4.63;;;;;;;5.46;100.00;103876.44;5038662;28;20086;-81
2023/12/16 08:33:03;;;;;;;14.70;4.78;;;;;;;5.50;100.00;103870.00;5039026;28;20504;-82
2023/12/16 08:35:29;;;;;;;8.95;3.92;;;;;;;5.51;100.00;103863.78;5038193;28;20129;-81
2023/12/16 08:37:57;;;;;;;13.63;3.65;;;;;;;5.62;100.00;103876.41;5037569;28;20030;-81
2023/12/16 08:40:25;;;;;;;20.42;4.57;;;;;;;5.61;100.00;103872.06;5036381;28;20039;-81
2023/12/16 08:42:50;;;;;;;13.73;3.55;;;;;;;5.64;100.00;103875.38;5021631;28;20064;-81
2023/12/16 08:45:16;;;;;;;12.52;4.18;;;;;;;5.69;100.00;103891.00;5037561;28;20175;-81
2023/12/16 08:47:42;;;;;;;10.90;3.50;;;;;;;5.74;100.00;103872.19;5022356;28;20025;-83
2023/12/16 08:50:08;;;;;;;18.58;4.63;;;;;;;5.77;100.00;103858.78;5038662;28;20052;-82
2023/12/16 08:52:35;;;;;;;12.10;3.17;;;;;;;5.93;100.00;103864.84;5036461;28;20032;-81
2023/12/16 08:55:00;;;;;;;9.02;3.17;;;;;;;6.02;100.00;103866.97;5039122;28;20094;-82
2023/12/16 08:57:27;;;;;;;15.30;3.85;;;;;;;6.09;100.00;103872.78;5023904;28;20491;-81
2023/12/16 08:59:53;;;;;;;9.20;3.50;;;;;;;6.14;100.00;103866.25;5041479;28;20431;-81
2023/12/16 09:02:18;;;;;;;8.02;2.80;;;;;;;6.22;100.00;103878.19;5024071;28;20036;-81
2023/12/16 09:04:44;;;;;;;11.73;3.10;;;;;;;6.26;100.00;103883.22;5022728;28;20135;-78
2023/12/16 09:07:09;;;;;;;9.40;3.30;;;;;;;6.36;100.00;103886.97;5038860;28;20487;-79
2023/12/16 09:09:34;;;;;;;15.95;3.58;;;;;;;6.44;100.00;103885.66;5024125;28;20164;-77
2023/12/16 09:12:00;;;;;;;11.10;3.95;;;;;;;6.48;100.00;103885.38;5040143;28;20118;-82
2023/12/16 09:14:25;;;;;;;14.68;4.75;;;;;;;6.55;100.00;103892.03;5007688;28;20029;-82
2023/12/16 09:16:51;;;;;;;17.95;4.07;;;;;;;6.56;100.00;103884.91;5041119;28;20034;-82
2023/12/16 09:19:16;;;;;;;8.52;3.50;;;;;;;6.64;100.00;103879.13;5028483;28;20086;-82
2023/12/16 09:21:42;;;;;;;10.73;4.40;;;;;;;6.66;100.00;103877.25;5035538;28;20029;-82
2023/12/16 09:24:08;;;;;;;13.43;4.28;;;;;;;6.76;100.00;103895.13;5041375;28;20048;-82
2023/12/16 09:26:33;;;;;;;12.88;2.90;;;;;;;6.86;100.00;103892.75;5035648;28;20046;-82
2023/12/16 09:29:00;;;;;;;12.50;4.00;;;;;;;6.90;100.00;103888.09;5032934;28;20033;-82
2023/12/16 09:31:26;;;;;;;16.65;4.97;;;;;;;6.96;100.00;103890.34;5036466;28;20025;-82
2023/12/16 09:33:51;;;;;;;20.73;4.75;;;;;;;7.04;100.00;103898.69;5023231;28;20047;-82
2023/12/16 09:36:16;;;;;;;10.32;3.63;;;;;;;7.10;100.00;103902.75;5040257;28;20198;-82
2023/12/16 09:38:42;;;;;;;10.95;3.83;;;;;;;7.16;100.00;103910.31;5035746;28;20021;-82
2023/12/16 09:41:30;;;;;;;13.90;3.53;;;;;;;7.21;100.00;103911.72;5045311;28;20408;-82
2023/12/16 09:43:58;;;;;;;11.05;4.00;;;;;;;7.27;100.00;103915.78;5037513;28;20426;-82
2023/12/16 09:46:28;;;;;;;12.73;4.22;;;;;;;7.34;100.00;103916.25;5042087;28;20025;-82
2023/12/16 09:48:54;;;;;;;12.55;3.90;;;;;;;7.36;100.00;103914.34;5024847;28;20120;-82
2023/12/16 09:51:21;;;;;;;12.75;3.63;;;;;;;7.45;100.00;103925.22;5025082;28;20144;-83
2023/12/16 09:53:48;;;;;;;13.85;4.50;;;;;;;7.51;100.00;103913.34;5039087;28;20039;-85
2023/12/16 09:56:15;;;;;;;12.90;3.90;;;;;;;7.51;100.00;103912.50;5040364;28;20032;-84
2023/12/16 09:58:43;;;;;;;13.65;5.03;;;;;;;7.63;100.00;103925.81;5025512;28;20361;-83
2023/12/16 10:01:09;;;;;;;21.88;5.55;;;;;;;7.68;100.00;103917.53;5039982;28;20029;-83
2023/12/16 10:03:36;;;;;;;13.68;4.88;;;;;;;7.72;100.00;103928.81;5022295;28;20086;-84
2023/12/16 10:06:02;;;;;;;10.20;3.85;;;;;;;7.80;100.00;103930.00;5038762;28;20064;-82
2023/12/16 10:08:28;;;;;;;21.77;4.82;;;;;;;7.84;100.00;103928.84;5041060;28;20397;-83
2023/12/16 10:10:58;;;;;;;19.85;6.25;;;;;;;7.89;100.00;103926.75;5041408;28;20048;-83
2023/12/16 10:13:24;;;;;;;8.57;3.40;;;;;;;7.93;100.00;103931.84;5039403;28;20032;-81
2023/12/16 10:15:50;;;;;;;15.75;4.90;;;;;;;7.92;100.00;103924.84;5040078;28;20029;-83
2023/12/16 10:18:16;;;;;;;13.18;4.10;;;;;;;7.97;100.00;103931.53;5021936;28;20148;-82
2023/12/16 10:20:43;;;;;;;21.40;5.57;;;;;;;8.00;100.00;103925.16;5041470;28;20041;-81
2023/12/16 10:23:08;;;;;;;14.85;4.28;;;;;;;8.02;100.00;103940.06;5022457;28;20107;-82
2023/12/16 10:25:34;;;;;;;18.17;4.65;;;;;;;8.01;100.00;103926.84;5040599;28;20029;-80
2023/12/16 10:28:03;;;;;;;16.88;5.55;;;;;;;7.98;100.00;103927.91;5024428;28;20568;-81
2023/12/16 10:30:29;;;;;;;12.20;4.55;;;;;;;7.95;100.00;103925.47;5040137;28;20032;-81
2023/12/16 10:32:55;;;;;;;13.88;4.40;;;;;;;7.98;100.00;103937.69;5024162;28;20044;-81
2023/12/16 10:35:23;;;;;;;17.35;5.80;;;;;;;7.93;100.00;103926.53;5040614;28;20384;-81
2023/12/16 10:37:50;;;;;;;15.57;5.18;;;;;;;7.93;100.00;103922.06;5007678;28;20053;-81
2023/12/16 10:40:16;;;;;;;21.13;6.35;;;;;;;7.96;100.00;103926.31;5041315;28;20041;-81
2023/12/16 10:42:42;;;;;;;16.98;6.47;;;;;;;7.99;100.00;103918.13;5041011;28;20056;-81
2023/12/16 10:45:09;;;;;;;14.25;5.45;;;;;;;8.00;100.00;103914.53;5040533;28;20033;-81
2023/12/16 10:47:37;;;;;;;13.65;4.60;;;;;;;8.03;100.00;103916.97;5037246;28;20079;-81
2023/12/16 10:50:03;;;;;;;13.82;4.68;;;;;;;8.06;100.00;103911.44;5042302;28;20380;-81
2023/12/16 10:52:35;;;;;;;19.27;5.75;;;;;;;8.05;100.00;103905.28;5038452;28;20106;-80
2023/12/16 10:55:02;;;;;;;17.08;5.45;;;;;;;8.09;100.00;103908.56;5040996;28;20021;-81
2023/12/16 10:57:47;;;;;;;19.15;5.00;;;;;;;8.11;100.00;103901.34;5037000;28;20034;-81
2023/12/16 11:00:34;;;;;;;16.35;5.57;;;;;;;8.12;100.00;103903.91;5038217;28;20029;-81
2023/12/16 11:03:04;;;;;;;18.00;5.18;;;;;;;8.12;100.00;103903.03;5039160;28;20029;-81
2023/12/16 11:05:32;;;;;;;15.38;5.45;;;;;;;8.09;100.00;103903.25;5037982;28;20058;-81
2023/12/16 11:08:02;;;;;;;16.33;5.57;;;;;;;8.10;100.00;103908.47;5021697;28;20032;-81
2023/12/16 11:10:30;;;;;;;16.48;6.10;;;;;;;8.13;100.00;103900.28;5039039;28;20110;-81
2023/12/16 11:12:56;;;;;;;28.30;7.50;;;;;;;8.17;100.00;103895.59;5024459;28;20024;-81